Darstellungsparameter: Aktuell verwendete Einstellungen:
Skalierung der Graphiken ... ?
xyx+y,   Skalierungsfaktor:      Skalierung: Modus: x, Faktor: 1
Darstellungszeitraum ... ?
Vom - - bis: - -   Zeitraum: 24.05.2022 - 25.05.2022
Min/Max/Avg-Anzeige ... ?
Zeige MMA aktuell
Zeige MMA Monat
Zeige MMA alles
Zeige --A aktuell
Zeige --A Monat
Zeige --A alles
Keine MMA-Anzeige
MMA:
Keine MMA-Graphiken
MMA-Basis: 24.05.2022 - 25.05.2022
Quicknavigation für Darstellung... ?
Tage:      1T, 2T, 3T, 5T -1T -2T -3T -5T +1T +2T +3T +5T
Wochen: 1W, 2W, 3W -1W -2W -3W +1W +2W +3W
Monate: 1M, 3M, 6M -1M -3M -6M +1M +3M +6M
Jahre:    1J, 3J, 5J, 10J -1J -3J -5J -10J +1J +3J +5J +10J
Nutze für die Darstellung ... ?
Originaldaten oder Mittelwerte auf ...
Stundenbasis Tagesbasis Wochenbasis
Monatsbasis Jahresbasis      Datenbasis: Original-Daten
Darstellen als:
Statistik (Auto) Statistik J:M      Darstellung:
Zur Graphik,    zurück zur Übersicht aller Sensoren.
 
Tabellarische Datenbersicht: ?
 
Sensor: Nr:Datum:Temp:Feuchte:Taupunkt:
Aussen-T/F 1 24-05-2022 02:00:00 15.3 C 83 % 12.43 C
2 24-05-2022 02:05:00 15.2 C 84 % 12.52 C
3 24-05-2022 02:10:00 15 C 84 % 12.32 C
4 24-05-2022 02:15:00 14.8 C 85 % 12.3 C
5 24-05-2022 02:20:00 14.7 C 85 % 12.21 C
6 24-05-2022 02:25:00 14.6 C 86 % 12.29 C
7 24-05-2022 02:30:00 14.6 C 86 % 12.29 C
8 24-05-2022 02:35:00 14.6 C 86 % 12.29 C
9 24-05-2022 02:40:00 14.4 C 86 % 12.09 C
10 24-05-2022 02:45:00 14.3 C 87 % 12.17 C
11 24-05-2022 02:50:00 14.3 C 87 % 12.17 C
12 24-05-2022 02:55:00 14.2 C 87 % 12.07 C
13 24-05-2022 03:00:00 14.2 C 88 % 12.24 C
14 24-05-2022 03:05:00 14.3 C 88 % 12.34 C
15 24-05-2022 03:10:00 14.2 C 88 % 12.24 C
16 24-05-2022 03:15:00 14.2 C 88 % 12.24 C
17 24-05-2022 03:20:00 14.3 C 88 % 12.34 C
18 24-05-2022 03:25:00 14.3 C 88 % 12.34 C
19 24-05-2022 03:30:00 14.4 C 88 % 12.44 C
20 24-05-2022 03:35:00 14.5 C 88 % 12.54 C
21 24-05-2022 03:40:00 14.6 C 88 % 12.64 C
22 24-05-2022 03:45:00 14.6 C 88 % 12.64 C
23 24-05-2022 03:50:00 14.7 C 88 % 12.73 C
24 24-05-2022 03:55:00 14.7 C 88 % 12.73 C
25 24-05-2022 04:00:00 14.7 C 88 % 12.73 C
Sensor: Nr:Datum:Temp:Feuchte:Taupunkt:
Aussen-T/F 26 24-05-2022 04:05:00 14.7 C 88 % 12.73 C
27 24-05-2022 04:10:00 14.7 C 88 % 12.73 C
28 24-05-2022 04:15:00 14.7 C 88 % 12.73 C
29 24-05-2022 04:20:00 14.7 C 88 % 12.73 C
30 24-05-2022 04:25:00 14.7 C 88 % 12.73 C
31 24-05-2022 04:30:00 14.7 C 88 % 12.73 C
32 24-05-2022 04:35:00 14.7 C 88 % 12.73 C
33 24-05-2022 04:40:00 14.7 C 88 % 12.73 C
34 24-05-2022 04:45:00 14.7 C 88 % 12.73 C
35 24-05-2022 04:50:00 14.7 C 88 % 12.73 C
36 24-05-2022 04:55:00 14.7 C 88 % 12.73 C
37 24-05-2022 05:00:00 14.7 C 88 % 12.73 C
38 24-05-2022 05:05:00 14.7 C 88 % 12.73 C
39 24-05-2022 05:10:00 14.7 C 87 % 12.56 C
40 24-05-2022 05:15:00 14.7 C 87 % 12.56 C
41 24-05-2022 05:20:00 14.7 C 87 % 12.56 C
42 24-05-2022 05:25:00 14.7 C 87 % 12.56 C
43 24-05-2022 05:30:00 14.8 C 87 % 12.66 C
44 24-05-2022 05:35:00 14.8 C 88 % 12.83 C
45 24-05-2022 05:40:00 14.8 C 88 % 12.83 C
46 24-05-2022 05:45:00 14.8 C 87 % 12.66 C
47 24-05-2022 05:50:00 14.8 C 88 % 12.83 C
48 24-05-2022 05:55:00 14.8 C 88 % 12.83 C
49 24-05-2022 06:00:00 14.8 C 88 % 12.83 C
50 24-05-2022 06:05:00 14.8 C 89 % 13.01 C
Sensor: Nr:Datum:Temp:Feuchte:Taupunkt:
Aussen-T/F 51 24-05-2022 06:10:00 14.8 C 89 % 13.01 C
52 24-05-2022 06:15:00 14.8 C 90 % 13.18 C
53 24-05-2022 06:20:00 14.7 C 90 % 13.08 C
54 24-05-2022 06:25:00 14.7 C 90 % 13.08 C
55 24-05-2022 06:30:00 14.7 C 90 % 13.08 C
56 24-05-2022 06:35:00 14.6 C 90 % 12.98 C
57 24-05-2022 06:40:00 14.6 C 91 % 13.15 C
58 24-05-2022 06:45:00 14.6 C 91 % 13.15 C
59 24-05-2022 06:50:00 14.6 C 91 % 13.15 C
60 24-05-2022 06:55:00 14.5 C 92 % 13.22 C
61 24-05-2022 07:00:00 14.5 C 92 % 13.22 C
62 24-05-2022 07:05:00 14.5 C 92 % 13.22 C
63 24-05-2022 07:10:00 14.4 C 92 % 13.12 C
64 24-05-2022 07:15:00 14.4 C 93 % 13.28 C
65 24-05-2022 07:20:00 14.3 C 93 % 13.18 C
66 24-05-2022 07:25:00 14.2 C 92 % 12.92 C
67 24-05-2022 07:30:00 13.9 C 92 % 12.62 C
68 24-05-2022 07:35:00 13.7 C 92 % 12.42 C
69 24-05-2022 07:40:00 13.5 C 92 % 12.23 C
70 24-05-2022 07:45:00 13.3 C 92 % 12.03 C
71 24-05-2022 07:50:00 13.2 C 92 % 11.93 C
72 24-05-2022 07:55:00 13.2 C 92 % 11.93 C
73 24-05-2022 08:00:00 13.1 C 93 % 11.99 C
74 24-05-2022 08:05:00 13.1 C 93 % 11.99 C
75 24-05-2022 08:10:00 13.1 C 93 % 11.99 C
Sensor: Nr:Datum:Temp:Feuchte:Taupunkt:
Aussen-T/F 76 24-05-2022 08:15:00 13.1 C 93 % 11.99 C
77 24-05-2022 08:20:00 13.2 C 94 % 12.26 C
78 24-05-2022 08:25:00 13.4 C 94 % 12.45 C
79 24-05-2022 08:30:00 13.6 C 94 % 12.65 C
80 24-05-2022 08:35:00 13.7 C 94 % 12.75 C
81 24-05-2022 08:40:00 13.7 C 94 % 12.75 C
82 24-05-2022 08:45:00 13.7 C 94 % 12.75 C
83 24-05-2022 08:50:00 13.7 C 94 % 12.75 C
84 24-05-2022 08:55:00 13.7 C 94 % 12.75 C
85 24-05-2022 09:00:00 13.8 C 94 % 12.85 C
86 24-05-2022 09:05:00 13.8 C 94 % 12.85 C
87 24-05-2022 09:10:00 13.8 C 94 % 12.85 C
88 24-05-2022 09:15:00 13.6 C 94 % 12.65 C
89 24-05-2022 09:20:00 13.6 C 94 % 12.65 C
90 24-05-2022 09:25:00 13.5 C 94 % 12.55 C
91 24-05-2022 09:30:00 13.6 C 94 % 12.65 C
92 24-05-2022 09:35:00 13.7 C 94 % 12.75 C
93 24-05-2022 09:40:00 13.9 C 94 % 12.95 C
94 24-05-2022 09:45:00 13.9 C 94 % 12.95 C
95 24-05-2022 09:50:00 14.1 C 94 % 13.15 C
96 24-05-2022 09:55:00 14.3 C 93 % 13.18 C
97 24-05-2022 10:00:00 14.3 C 93 % 13.18 C
98 24-05-2022 10:05:00 14.2 C 92 % 12.92 C
99 24-05-2022 10:10:00 14.2 C 92 % 12.92 C
100 24-05-2022 10:15:00 14.1 C 92 % 12.82 C
Sensor: Nr:Datum:Temp:Feuchte:Taupunkt:
Aussen-T/F 101 24-05-2022 10:20:00 14.1 C 92 % 12.82 C
102 24-05-2022 10:25:00 14.1 C 92 % 12.82 C
103 24-05-2022 10:30:00 14.2 C 93 % 13.08 C
104 24-05-2022 10:35:00 14.2 C 92 % 12.92 C
105 24-05-2022 10:40:00 14.3 C 92 % 13.02 C
106 24-05-2022 10:45:00 14.5 C 92 % 13.22 C
107 24-05-2022 10:50:00 14.6 C 90 % 12.98 C
108 24-05-2022 10:55:00 14.6 C 88 % 12.64 C
109 24-05-2022 11:00:00 14.5 C 87 % 12.36 C
110 24-05-2022 11:05:00 14.6 C 88 % 12.64 C
111 24-05-2022 11:10:00 14.7 C 88 % 12.73 C
112 24-05-2022 11:15:00 14.9 C 87 % 12.76 C
113 24-05-2022 11:20:00 15.2 C 86 % 12.88 C
114 24-05-2022 11:25:00 15.2 C 83 % 12.33 C
115 24-05-2022 11:30:00 15.4 C 85 % 12.89 C
116 24-05-2022 11:35:00 15.6 C 82 % 12.54 C
117 24-05-2022 11:40:00 15.8 C 82 % 12.74 C
118 24-05-2022 11:45:00 15.9 C 80 % 12.46 C
119 24-05-2022 11:50:00 16.1 C 80 % 12.65 C
120 24-05-2022 11:55:00 16.2 C 80 % 12.75 C
121 24-05-2022 12:00:00 16.3 C 77 % 12.26 C
122 24-05-2022 12:05:00 16.3 C 78 % 12.46 C
123 24-05-2022 12:10:00 16.2 C 75 % 11.77 C
124 24-05-2022 12:15:00 16.3 C 78 % 12.46 C
125 24-05-2022 12:20:00 16.5 C 77 % 12.46 C
Sensor: Nr:Datum:Temp:Feuchte:Taupunkt:
Aussen-T/F 126 24-05-2022 12:25:00 16.8 C 76 % 12.55 C
127 24-05-2022 12:30:00 17.1 C 73 % 12.23 C
128 24-05-2022 12:35:00 16.9 C 73 % 12.03 C
129 24-05-2022 12:40:00 16.5 C 71 % 11.23 C
130 24-05-2022 12:45:00 16.2 C 73 % 11.36 C
131 24-05-2022 12:50:00 16 C 75 % 11.57 C
132 24-05-2022 12:55:00 16.1 C 75 % 11.67 C
133 24-05-2022 13:00:00 16.5 C 75 % 12.06 C
134 24-05-2022 13:05:00 16.8 C 74 % 12.14 C
135 24-05-2022 13:10:00 17.2 C 74 % 12.53 C
136 24-05-2022 13:15:00 17.3 C 73 % 12.42 C
137 24-05-2022 13:20:00 17.4 C 72 % 12.3 C
138 24-05-2022 13:25:00 17.5 C 71 % 12.19 C
139 24-05-2022 13:30:00 17.6 C 70 % 12.07 C
140 24-05-2022 13:35:00 17.8 C 68 % 11.82 C
141 24-05-2022 13:40:00 17.9 C 67 % 11.69 C
142 24-05-2022 13:45:00 17.6 C 64 % 10.72 C
143 24-05-2022 13:50:00 17.3 C 69 % 11.56 C
144 24-05-2022 13:55:00 17.1 C 71 % 11.8 C
145 24-05-2022 14:00:00 17 C 71 % 11.71 C
146 24-05-2022 14:05:00 16.9 C 75 % 12.44 C
147 24-05-2022 14:10:00 17 C 73 % 12.13 C
148 24-05-2022 14:15:00 17.4 C 74 % 12.72 C
149 24-05-2022 14:20:00 17.8 C 71 % 12.47 C
150 24-05-2022 14:25:00 18 C 69 % 12.23 C
Sensor: Nr:Datum:Temp:Feuchte:Taupunkt:
Aussen-T/F 151 24-05-2022 14:30:00 17.9 C 69 % 12.14 C
152 24-05-2022 14:35:00 18 C 67 % 11.79 C
153 24-05-2022 14:40:00 18.3 C 68 % 12.3 C
154 24-05-2022 14:45:00 18.8 C 61 % 11.13 C
155 24-05-2022 14:50:00 19.1 C 60 % 11.16 C
156 24-05-2022 14:55:00 19.2 C 60 % 11.25 C
157 24-05-2022 15:00:00 19.2 C 62 % 11.75 C
158 24-05-2022 15:05:00 19.2 C 60 % 11.25 C
159 24-05-2022 15:10:00 19.1 C 64 % 12.14 C
160 24-05-2022 15:15:00 19.3 C 63 % 12.09 C
161 24-05-2022 15:20:00 19.6 C 65 % 12.84 C
162 24-05-2022 15:25:00 19.8 C 60 % 11.82 C
163 24-05-2022 15:30:00 19.7 C 61 % 11.97 C
164 24-05-2022 15:35:00 19.7 C 61 % 11.97 C
165 24-05-2022 15:40:00 19.8 C 59 % 11.56 C
166 24-05-2022 15:45:00 19.8 C 59 % 11.56 C
167 24-05-2022 15:50:00 19.8 C 60 % 11.82 C
168 24-05-2022 15:55:00 19.4 C 59 % 11.19 C
169 24-05-2022 16:00:00 19.1 C 63 % 11.9 C
170 24-05-2022 16:05:00 18.8 C 63 % 11.61 C
171 24-05-2022 16:10:00 18.2 C 63 % 11.05 C
172 24-05-2022 16:15:00 17.7 C 67 % 11.5 C
173 24-05-2022 16:20:00 17.5 C 66 % 11.08 C
174 24-05-2022 16:25:00 17.7 C 65 % 11.04 C
175 24-05-2022 16:30:00 18 C 64 % 11.09 C
Sensor: Nr:Datum:Temp:Feuchte:Taupunkt:
Aussen-T/F 176 24-05-2022 16:35:00 18.3 C 66 % 11.84 C
177 24-05-2022 16:40:00 18.4 C 61 % 10.75 C
178 24-05-2022 16:45:00 18.2 C 60 % 10.31 C
179 24-05-2022 16:50:00 18 C 64 % 11.09 C
180 24-05-2022 16:55:00 17.8 C 65 % 11.14 C
181 24-05-2022 17:00:00 17.8 C 63 % 10.67 C
182 24-05-2022 17:05:00 17.9 C 62 % 10.52 C
183 24-05-2022 17:10:00 17.8 C 62 % 10.43 C
184 24-05-2022 17:15:00 17.6 C 63 % 10.48 C
185 24-05-2022 17:20:00 17.4 C 61 % 9.81 C
186 24-05-2022 17:25:00 17.2 C 61 % 9.62 C
187 24-05-2022 17:30:00 17.1 C 64 % 10.24 C
188 24-05-2022 17:35:00 17.1 C 64 % 10.24 C
189 24-05-2022 17:40:00 17.1 C 67 % 10.93 C
190 24-05-2022 17:45:00 17.2 C 66 % 10.8 C
191 24-05-2022 17:50:00 17.4 C 65 % 10.76 C
192 24-05-2022 17:55:00 17.6 C 64 % 10.72 C
193 24-05-2022 18:00:00 17.7 C 66 % 11.27 C
194 24-05-2022 18:05:00 17.7 C 64 % 10.81 C
195 24-05-2022 18:10:00 17.7 C 65 % 11.04 C
196 24-05-2022 18:15:00 17.7 C 64 % 10.81 C
197 24-05-2022 18:20:00 17.8 C 66 % 11.37 C
198 24-05-2022 18:25:00 17.8 C 67 % 11.6 C
199 24-05-2022 18:30:00 17.8 C 65 % 11.14 C
200 24-05-2022 18:35:00 17.8 C 67 % 11.6 C
Sensor: Nr:Datum:Temp:Feuchte:Taupunkt:
Aussen-T/F 201 24-05-2022 18:40:00 17.8 C 66 % 11.37 C
202 24-05-2022 18:45:00 17.9 C 67 % 11.69 C
203 24-05-2022 18:50:00 17.9 C 65 % 11.23 C
204 24-05-2022 18:55:00 17.8 C 65 % 11.14 C
205 24-05-2022 19:00:00 17.7 C 68 % 11.72 C
206 24-05-2022 19:05:00 17.6 C 68 % 11.63 C
207 24-05-2022 19:10:00 17.4 C 67 % 11.21 C
208 24-05-2022 19:15:00 17.2 C 70 % 11.68 C
209 24-05-2022 19:20:00 17.1 C 68 % 11.15 C
210 24-05-2022 19:25:00 16.8 C 69 % 11.09 C
211 24-05-2022 19:30:00 16.4 C 70 % 10.92 C
212 24-05-2022 19:35:00 16.2 C 69 % 10.51 C
213 24-05-2022 19:40:00 15.9 C 70 % 10.44 C
214 24-05-2022 19:45:00 15.8 C 72 % 10.77 C
215 24-05-2022 19:50:00 15.7 C 70 % 10.25 C
216 24-05-2022 19:55:00 15.7 C 71 % 10.46 C
217 24-05-2022 20:00:00 15.6 C 70 % 10.15 C
218 24-05-2022 20:05:00 15.4 C 72 % 10.38 C
219 24-05-2022 20:10:00 15.4 C 72 % 10.38 C
220 24-05-2022 20:15:00 15.3 C 73 % 10.49 C
221 24-05-2022 20:20:00 15.3 C 75 % 10.9 C
222 24-05-2022 20:25:00 15.2 C 74 % 10.6 C
223 24-05-2022 20:30:00 15.1 C 74 % 10.5 C
224 24-05-2022 20:35:00 14.9 C 75 % 10.51 C
225 24-05-2022 20:40:00 14.8 C 76 % 10.61 C
Sensor: Nr:Datum:Temp:Feuchte:Taupunkt:
Aussen-T/F 226 24-05-2022 20:45:00 14.6 C 77 % 10.62 C
227 24-05-2022 20:50:00 14.3 C 77 % 10.33 C
228 24-05-2022 20:55:00 14.1 C 79 % 10.52 C
229 24-05-2022 21:00:00 13.9 C 80 % 10.51 C
230 24-05-2022 21:05:00 13.8 C 81 % 10.6 C
231 24-05-2022 21:10:00 13.6 C 81 % 10.4 C
232 24-05-2022 21:15:00 13.4 C 82 % 10.39 C
233 24-05-2022 21:20:00 13.2 C 83 % 10.38 C
234 24-05-2022 21:25:00 13.1 C 84 % 10.46 C
235 24-05-2022 21:30:00 12.8 C 84 % 10.17 C
236 24-05-2022 21:35:00 12.6 C 84 % 9.97 C
237 24-05-2022 21:40:00 12.4 C 85 % 9.95 C
238 24-05-2022 21:45:00 12.2 C 85 % 9.76 C
239 24-05-2022 21:50:00 12.1 C 86 % 9.83 C
240 24-05-2022 21:55:00 11.9 C 87 % 9.81 C
241 24-05-2022 22:00:00 11.9 C 87 % 9.81 C
242 24-05-2022 22:05:00 11.8 C 87 % 9.71 C
243 24-05-2022 22:10:00 11.8 C 88 % 9.88 C
244 24-05-2022 22:15:00 11.8 C 88 % 9.88 C
245 24-05-2022 22:20:00 11.7 C 88 % 9.78 C
246 24-05-2022 22:25:00 11.7 C 88 % 9.78 C
247 24-05-2022 22:30:00 11.7 C 88 % 9.78 C
248 24-05-2022 22:35:00 11.6 C 89 % 9.85 C
249 24-05-2022 22:40:00 11.6 C 89 % 9.85 C
250 24-05-2022 22:45:00 11.6 C 89 % 9.85 C
Sensor: Nr:Datum:Temp:Feuchte:Taupunkt:
Aussen-T/F 251 24-05-2022 22:50:00 11.6 C 89 % 9.85 C
252 24-05-2022 22:55:00 11.5 C 90 % 9.92 C
253 24-05-2022 23:00:00 11.5 C 90 % 9.92 C
254 24-05-2022 23:05:00 11.5 C 90 % 9.92 C
255 24-05-2022 23:10:00 11.6 C 91 % 10.18 C
256 24-05-2022 23:15:00 11.6 C 91 % 10.18 C
257 24-05-2022 23:20:00 11.6 C 91 % 10.18 C
258 24-05-2022 23:25:00 11.6 C 91 % 10.18 C
259 24-05-2022 23:30:00 11.6 C 91 % 10.18 C
260 24-05-2022 23:35:00 11.6 C 91 % 10.18 C
261 24-05-2022 23:40:00 11.5 C 90 % 9.92 C
262 24-05-2022 23:45:00 11.4 C 90 % 9.82 C
263 24-05-2022 23:50:00 11.3 C 90 % 9.72 C
264 24-05-2022 23:55:00 11.3 C 91 % 9.89 C
265 25-05-2022 00:00:00 11.2 C 91 % 9.79 C
266 25-05-2022 00:05:00 11.2 C 91 % 9.79 C
267 25-05-2022 00:10:00 11.1 C 91 % 9.69 C
268 25-05-2022 00:15:00 11.1 C 91 % 9.69 C
269 25-05-2022 00:20:00 11 C 91 % 9.59 C
270 25-05-2022 00:25:00 10.9 C 91 % 9.49 C
271 25-05-2022 00:30:00 10.9 C 91 % 9.49 C
272 25-05-2022 00:35:00 10.9 C 92 % 9.65 C
273 25-05-2022 00:40:00 10.8 C 92 % 9.55 C
274 25-05-2022 00:45:00 10.8 C 92 % 9.55 C
275 25-05-2022 00:50:00 10.8 C 92 % 9.55 C
Sensor: Nr:Datum:Temp:Feuchte:Taupunkt:
Aussen-T/F 276 25-05-2022 00:55:00 10.8 C 92 % 9.55 C

Legende:
   Min
   Max


Maximal/Minimal-Werte vom 24.05.2022 - 25.05.2022

Sensor Min Max Avg
Temp
(Aussen-T/F)
10.8 °C
25-05-2022  00:40:00
19.8 °C
24-05-2022  15:25:00
15.1 °C
Feuchte
(Aussen-T/F)
59 %
24-05-2022  15:40:00
94 %
24-05-2022  08:20:00
80.88 %
Taupunkt
(Aussen-T/F)
9.49 C
25-05-2022  00:25:00
13.28 C
24-05-2022  07:15:00
11.63 C

Die Daten stammen von einer Davis Vantage Pro 2 Wetter-Station und werden unter Linux mit der Software wview2wettercgi und aufbereitet. Alle Angaben erfolgen ohne Gewähr für ihre Vollständigkeit oder Richtigkeit.
Kontakt: Rainer Krienke krienke@uni-koblenz.de . Meine Webseiten an der Uni Koblenz oder privat.
Version: $Revision: 0.78 $